Time;durP1;ratioP1;P1;durP2;ratioP2;P2;SDS_P1;SDS_P2;PMS_P1;PMS_P2;Temp;Humidity;BMP_temperature;BMP_pressure;BME280_temperature;BME280_humidity;BME280_pressure;Samples;Min_cycle;Max_cycle;Signal;HPM_P1;HPM_P2
2022/12/27 00:01:11;;;;;;;64.75;37.67;;;9.40;80.50;;;;;;4938081;29;20055;-16
2022/12/27 00:03:37;;;;;;;59.88;37.85;;;9.40;80.50;;;;;;4938481;29;20028;-15
2022/12/27 00:06:10;;;;;;;66.93;39.90;;;9.40;80.60;;;;;;4938147;29;20027;-17
2022/12/27 00:08:36;;;;;;;72.65;41.38;;;9.50;80.50;;;;;;4938236;29;20027;-17
2022/12/27 00:11:15;;;;;;;59.38;35.35;;;9.50;80.50;;;;;;4936663;29;20109;-17
2022/12/27 00:13:42;;;;;;;76.18;43.08;;;9.60;80.30;;;;;;4937830;29;20042;-17
2022/12/27 00:16:11;;;;;;;63.75;36.92;;;9.60;80.30;;;;;;4937989;29;20511;-16
2022/12/27 00:18:38;;;;;;;63.25;38.55;;;9.60;80.20;;;;;;4937815;29;20488;-18
2022/12/27 00:21:06;;;;;;;96.53;53.67;;;9.60;80.20;;;;;;4937803;29;20511;-17
2022/12/27 00:23:35;;;;;;;91.70;50.03;;;9.60;80.20;;;;;;4937506;29;20054;-17
2022/12/27 00:26:08;;;;;;;72.68;40.95;;;9.60;80.10;;;;;;4938280;29;20441;-15
2022/12/27 00:28:34;;;;;;;76.78;43.10;;;9.60;80.10;;;;;;4937757;29;20405;-17
2022/12/27 00:31:01;;;;;;;72.63;42.55;;;9.50;80.20;;;;;;4937410;29;20039;-17
2022/12/27 00:33:28;;;;;;;76.65;44.33;;;9.50;80.10;;;;;;4937730;29;20032;-15
2022/12/27 00:35:57;;;;;;;70.85;42.53;;;9.50;80.10;;;;;;4937769;29;20024;-16
2022/12/27 00:38:23;;;;;;;90.47;51.10;;;9.40;80.20;;;;;;4937642;29;20095;-17
2022/12/27 00:40:49;;;;;;;95.40;50.88;;;9.40;80.20;;;;;;4937463;29;20473;-17
2022/12/27 00:43:15;;;;;;;93.55;54.78;;;9.40;80.20;;;;;;4937772;29;20391;-16
2022/12/27 00:45:42;;;;;;;88.18;50.55;;;9.30;80.30;;;;;;4937412;29;20488;-17
2022/12/27 00:48:08;;;;;;;70.78;43.63;;;9.30;80.30;;;;;;4937319;29;20035;-17
2022/12/27 00:50:34;;;;;;;71.10;41.22;;;9.20;80.50;;;;;;4937462;29;20472;-16
2022/12/27 00:53:00;;;;;;;78.18;43.67;;;9.20;80.60;;;;;;4937378;29;20123;-16
2022/12/27 00:55:27;;;;;;;65.10;38.83;;;9.10;80.60;;;;;;4937188;29;20469;-16
2022/12/27 00:57:53;;;;;;;76.32;45.13;;;9.10;80.60;;;;;;4936085;29;20350;-17
2022/12/27 01:00:19;;;;;;;71.40;41.70;;;9.10;80.70;;;;;;4937449;29;20086;-16
2022/12/27 01:02:45;;;;;;;71.80;41.22;;;9.00;80.60;;;;;;4937114;29;20111;-16
2022/12/27 01:05:11;;;;;;;76.43;43.25;;;8.90;80.60;;;;;;4937079;29;20031;-16
2022/12/27 01:07:37;;;;;;;78.88;43.67;;;8.90;80.70;;;;;;4937356;29;20024;-17
2022/12/27 01:10:03;;;;;;;88.20;49.92;;;8.80;80.70;;;;;;4936993;29;20406;-17
2022/12/27 01:12:29;;;;;;;84.15;46.15;;;8.80;80.70;;;;;;4936934;29;20456;-15
2022/12/27 01:14:55;;;;;;;96.95;55.75;;;8.70;80.70;;;;;;4937243;29;20413;-16
2022/12/27 01:17:21;;;;;;;75.95;42.28;;;8.60;80.70;;;;;;4937050;29;20122;-18
2022/12/27 01:19:47;;;;;;;83.95;47.17;;;8.40;80.70;;;;;;4936827;29;20031;-17
2022/12/27 01:22:13;;;;;;;96.63;57.20;;;8.30;80.90;;;;;;4936475;29;20072;-16
2022/12/27 01:24:39;;;;;;;67.60;41.60;;;8.30;81.20;;;;;;4936690;29;20035;-16
2022/12/27 01:27:05;;;;;;;88.72;50.15;;;8.20;81.50;;;;;;4936937;29;20055;-17
2022/12/27 01:29:31;;;;;;;73.13;44.92;;;8.30;81.80;;;;;;4936900;29;20116;-16
2022/12/27 01:31:57;;;;;;;80.75;47.67;;;8.30;81.80;;;;;;4936948;29;20024;-15
2022/12/27 01:34:22;;;;;;;72.13;42.00;;;8.30;81.90;;;;;;4935265;29;20349;-17
2022/12/27 01:36:49;;;;;;;64.10;38.55;;;8.40;81.90;;;;;;4935042;29;20027;-18
2022/12/27 01:39:15;;;;;;;60.63;37.78;;;8.40;81.80;;;;;;4936689;29;20042;-16
2022/12/27 01:44:57;;;;;;;73.40;44.03;;;8.50;81.50;;;;;;4936829;29;20102;-17
2022/12/27 01:47:26;;;;;;;70.35;42.15;;;8.60;81.30;;;;;;4935900;29;20103;-17
2022/12/27 01:50:06;;;;;;;78.72;45.25;;;8.70;81.40;;;;;;4936266;29;20373;-19
2022/12/27 01:52:44;;;;;;;77.50;45.95;;;8.70;81.20;;;;;;4936261;29;20031;-17
2022/12/27 01:55:31;;;;;;;89.18;49.03;;;8.70;81.10;;;;;;4936259;29;20054;-16
2022/12/27 01:58:04;;;;;;;94.22;52.28;;;8.80;81.00;;;;;;4936072;29;20492;-15
2022/12/27 02:00:30;;;;;;;87.10;51.38;;;8.80;80.90;;;;;;4936181;29;20028;-17
2022/12/27 02:02:56;;;;;;;75.25;46.28;;;8.80;80.90;;;;;;4936148;29;20023;-16
2022/12/27 02:05:24;;;;;;;82.38;50.38;;;8.80;80.80;;;;;;4935587;29;20051;-15
2022/12/27 02:08:03;;;;;;;90.43;53.42;;;8.80;80.90;;;;;;4935931;29;20032;-16
2022/12/27 02:10:31;;;;;;;93.65;56.67;;;8.80;80.90;;;;;;4935862;29;20028;-16
2022/12/27 02:12:58;;;;;;;87.47;51.22;;;8.80;80.90;;;;;;4935630;29;20038;-16
2022/12/27 02:15:24;;;;;;;76.60;46.65;;;8.70;80.80;;;;;;4936394;29;20019;-16
2022/12/27 02:17:50;;;;;;;85.68;51.13;;;8.70;81.20;;;;;;4936005;29;20032;-17
2022/12/27 02:20:24;;;;;;;73.10;43.90;;;8.60;81.20;;;;;;4935878;29;20476;-15
2022/12/27 02:26:01;;;;;;;89.85;51.75;;;8.60;81.10;;;;;;4935699;29;20519;-14
2022/12/27 02:29:04;;;;;;;96.75;55.30;;;8.60;81.20;;;;;;4936001;29;20038;-15
2022/12/27 02:31:41;;;;;;;75.05;44.53;;;8.60;81.20;;;;;;4935607;29;20035;-15
2022/12/27 02:34:21;;;;;;;73.95;43.47;;;8.60;81.20;;;;;;4935621;29;20035;-17
2022/12/27 02:36:51;;;;;;;79.60;48.05;;;8.60;81.10;;;;;;4935638;29;20027;-17
2022/12/27 02:39:19;;;;;;;74.80;45.13;;;8.70;81.30;;;;;;4935475;29;20507;-17
2022/12/27 02:53:36;;;;;;;62.33;38.85;;;8.80;81.30;;;;;;4935507;29;20042;-15
2022/12/27 02:59:24;;;;;;;58.28;33.70;;;8.80;81.30;;;;;;4876500;29;20101;-17
2022/12/27 03:05:12;;;;;;;57.63;37.42;;;8.90;81.00;;;;;;4876689;29;20441;-17
2022/12/27 03:07:56;;;;;;;65.72;38.30;;;9.00;81.00;;;;;;4877153;29;20127;-17
2022/12/27 03:17:00;;;;;;;69.55;41.90;;;8.90;80.70;;;;;;4877778;29;20496;-15
2022/12/27 03:25:33;;;;;;;82.68;45.67;;;8.90;80.90;;;;;;4798569;29;20409;-17
2022/12/27 03:33:35;;;;;;;66.10;38.13;;;8.90;81.00;;;;;;4843584;29;20049;-15
2022/12/27 03:39:06;;;;;;;64.40;38.15;;;8.90;81.00;;;;;;4842819;29;20082;-16
2022/12/27 03:44:23;;;;;;;54.63;33.38;;;8.90;80.90;;;;;;4843458;29;20089;-17
2022/12/27 03:46:55;;;;;;;51.65;33.15;;;8.90;80.90;;;;;;4843094;29;20034;-17
2022/12/27 03:49:30;;;;;;;58.33;34.97;;;8.90;80.90;;;;;;4843016;29;20049;-16
2022/12/27 03:52:24;;;;;;;56.70;34.13;;;8.90;80.90;;;;;;4842869;29;20034;-16
2022/12/27 03:54:51;;;;;;;72.95;41.13;;;8.80;80.90;;;;;;4883039;29;20504;-17
2022/12/27 03:57:20;;;;;;;47.80;31.70;;;8.80;81.00;;;;;;4938606;29;20047;-15
2022/12/27 03:59:46;;;;;;;54.10;34.35;;;8.80;81.00;;;;;;4938530;29;20038;-16
2022/12/27 04:02:13;;;;;;;60.22;35.05;;;8.80;81.10;;;;;;4938224;29;20024;-15
2022/12/27 04:04:39;;;;;;;50.22;32.00;;;8.70;81.00;;;;;;4938536;29;20063;-17
2022/12/27 04:07:06;;;;;;;50.90;32.25;;;8.80;81.00;;;;;;4937975;29;20400;-16
2022/12/27 04:36:56;;;;;;;;;;;7.80;81.00;;;;;;4938273;29;20091;-14
2022/12/27 04:39:22;;;;;;;57.25;33.72;;;7.60;81.00;;;;;;4937717;28;19910;-16
2022/12/27 04:55:37;;;;;;;52.22;30.45;;;7.30;81.60;;;;;;4937383;29;20043;-16
2022/12/27 04:58:03;;;;;;;57.60;34.10;;;7.20;81.70;;;;;;4937151;29;20043;-15
2022/12/27 05:03:20;;;;;;;40.05;26.65;;;7.10;81.90;;;;;;4937205;29;20038;-13
2022/12/27 05:05:48;;;;;;;57.38;34.80;;;7.10;82.00;;;;;;4937511;29;20015;-16
2022/12/27 05:13:59;;;;;;;45.80;29.33;;;7.00;82.00;;;;;;4937349;29;20122;-18
2022/12/27 05:16:30;;;;;;;57.33;33.92;;;6.90;82.20;;;;;;4936958;29;20019;-17
2022/12/27 05:18:56;;;;;;;51.30;31.73;;;6.90;82.20;;;;;;4936940;29;20050;-15
2022/12/27 05:21:22;;;;;;;51.17;31.40;;;6.90;82.20;;;;;;4936737;29;20515;-17
2022/12/27 05:26:34;;;;;;;58.45;35.78;;;6.90;82.10;;;;;;4937084;29;20127;-16
2022/12/27 05:29:00;;;;;;;45.17;28.42;;;6.80;82.10;;;;;;4936454;29;20049;-17
2022/12/27 05:31:27;;;;;;;52.47;31.67;;;6.70;82.10;;;;;;4936531;29;20024;-17
2022/12/27 05:33:54;;;;;;;45.63;29.00;;;6.70;82.10;;;;;;4936724;29;20475;-17
2022/12/27 05:36:20;;;;;;;56.45;31.90;;;6.70;82.10;;;;;;4936536;29;20132;-15
2022/12/27 05:38:46;;;;;;;50.13;30.85;;;6.60;82.10;;;;;;4936383;29;20469;-19
2022/12/27 05:41:12;;;;;;;45.83;29.02;;;6.50;82.10;;;;;;4935444;29;20570;-16
2022/12/27 05:43:39;;;;;;;43.75;28.80;;;6.50;82.20;;;;;;4936751;29;20027;-16
2022/12/27 05:46:10;;;;;;;47.45;29.15;;;6.40;82.20;;;;;;4935155;29;20079;-15
2022/12/27 05:48:36;;;;;;;60.22;36.58;;;6.40;82.20;;;;;;4936643;29;20032;-14
2022/12/27 05:51:08;;;;;;;54.85;30.63;;;6.30;82.10;;;;;;4936333;29;20043;-17
2022/12/27 05:53:34;;;;;;;42.60;26.75;;;6.20;82.10;;;;;;4936485;29;20503;-15
2022/12/27 05:56:00;;;;;;;41.63;26.30;;;6.10;82.20;;;;;;4936090;29;20028;-16
2022/12/27 05:58:27;;;;;;;39.83;24.65;;;6.10;82.30;;;;;;4936573;29;20034;-17
2022/12/27 06:00:54;;;;;;;39.22;24.50;;;6.00;82.30;;;;;;4935879;29;20047;-18
2022/12/27 06:03:20;;;;;;;39.33;25.27;;;5.90;82.30;;;;;;4936467;29;20024;-16
2022/12/27 06:05:46;;;;;;;44.75;27.42;;;5.90;82.30;;;;;;4935944;29;20055;-18
2022/12/27 06:08:12;;;;;;;42.72;26.65;;;5.80;82.40;;;;;;4935987;29;20396;-15
2022/12/27 06:10:39;;;;;;;40.15;24.23;;;5.70;82.50;;;;;;4936153;29;20023;-17
2022/12/27 06:13:05;;;;;;;42.35;25.52;;;5.70;82.40;;;;;;4935816;29;20036;-15
2022/12/27 06:15:31;;;;;;;36.25;22.60;;;5.60;82.40;;;;;;4935934;29;20027;-17
2022/12/27 06:17:59;;;;;;;43.05;25.30;;;5.60;82.60;;;;;;4935707;29;20139;-17
2022/12/27 06:20:25;;;;;;;33.67;20.98;;;5.50;82.60;;;;;;4934881;29;20034;-17
2022/12/27 06:22:52;;;;;;;36.63;22.17;;;5.50;82.60;;;;;;4935423;29;20134;-17
2022/12/27 06:25:18;;;;;;;36.28;24.13;;;5.50;82.70;;;;;;4935656;29;20028;-16
2022/12/27 06:27:44;;;;;;;51.60;30.80;;;5.50;82.70;;;;;;4935979;29;20480;-16
2022/12/27 06:30:11;;;;;;;51.10;30.50;;;5.40;82.60;;;;;;4935928;29;20032;-17
2022/12/27 06:32:37;;;;;;;52.50;29.17;;;5.40;82.60;;;;;;4935522;29;20038;-17
2022/12/27 06:35:03;;;;;;;44.25;26.95;;;5.40;82.60;;;;;;4935362;29;20478;-17
2022/12/27 06:37:29;;;;;;;47.22;27.63;;;5.30;82.50;;;;;;4935628;29;20186;-17
2022/12/27 06:39:56;;;;;;;41.25;24.58;;;5.20;82.60;;;;;;4935449;29;20477;-18
2022/12/27 06:42:22;;;;;;;39.15;23.00;;;5.10;82.60;;;;;;4934501;29;20455;-18
2022/12/27 06:44:48;;;;;;;45.10;26.20;;;5.10;82.60;;;;;;4933878;29;20486;-17
2022/12/27 06:47:14;;;;;;;38.92;23.00;;;5.00;82.60;;;;;;4935586;29;20059;-18
2022/12/27 06:49:40;;;;;;;33.75;21.75;;;5.00;82.80;;;;;;4935302;29;20522;-18
2022/12/27 06:52:06;;;;;;;41.85;25.35;;;4.90;82.70;;;;;;4933825;29;20023;-17
2022/12/27 06:54:32;;;;;;;46.58;26.13;;;4.90;82.80;;;;;;4935489;29;20125;-17
2022/12/27 06:56:58;;;;;;;53.25;30.48;;;4.90;82.80;;;;;;4935126;29;20584;-17
2022/12/27 06:59:24;;;;;;;51.65;31.05;;;4.80;82.70;;;;;;4935642;29;20103;-18
2022/12/27 07:01:50;;;;;;;56.65;32.65;;;4.80;82.70;;;;;;4935143;29;20159;-16
2022/12/27 07:04:16;;;;;;;58.67;36.40;;;4.70;82.70;;;;;;4935231;29;20110;-17
2022/12/27 07:06:42;;;;;;;50.60;30.40;;;4.60;82.80;;;;;;4935477;29;20046;-14
2022/12/27 07:09:08;;;;;;;43.08;27.73;;;4.60;83.00;;;;;;4935149;29;20050;-15
2022/12/27 07:11:35;;;;;;;41.28;25.30;;;4.60;83.00;;;;;;4935452;29;20035;-16
2022/12/27 07:14:02;;;;;;;40.35;23.58;;;4.60;83.10;;;;;;4935156;29;20031;-15
2022/12/27 07:16:29;;;;;;;38.10;24.05;;;4.60;83.20;;;;;;4935247;29;20032;-13
2022/12/27 07:18:57;;;;;;;33.65;22.13;;;4.60;83.30;;;;;;4934900;29;20039;-16
2022/12/27 07:21:25;;;;;;;36.38;22.27;;;4.60;83.20;;;;;;4935315;29;20044;-13
2022/12/27 07:23:52;;;;;;;36.05;23.48;;;4.60;83.30;;;;;;4934740;29;20055;-17
2022/12/27 07:26:20;;;;;;;38.15;24.42;;;4.60;83.20;;;;;;4935053;29;20503;-14
2022/12/27 07:28:46;;;;;;;48.97;29.48;;;4.70;83.40;;;;;;4935168;29;20043;-17
2022/12/27 07:31:15;;;;;;;42.75;27.40;;;4.70;83.50;;;;;;4935427;29;20479;-13
2022/12/27 07:33:41;;;;;;;39.80;23.70;;;4.80;83.20;;;;;;4935016;29;20507;-13
2022/12/27 07:36:20;;;;;;;56.78;33.42;;;4.80;83.30;;;;;;4934979;29;20032;-15
2022/12/27 07:38:46;;;;;;;50.63;29.58;;;4.90;83.20;;;;;;4934741;29;20074;-18
2022/12/27 07:41:13;;;;;;;56.97;33.45;;;4.90;83.00;;;;;;4934829;29;20036;-17
2022/12/27 07:43:39;;;;;;;51.63;30.98;;;5.00;83.10;;;;;;4935096;29;20380;-15
2022/12/27 07:46:15;;;;;;;43.15;26.10;;;5.00;83.10;;;;;;4934876;29;20034;-15
2022/12/27 07:48:41;;;;;;;45.67;27.10;;;5.20;83.00;;;;;;4935160;29;20032;-16
2022/12/27 07:51:07;;;;;;;35.78;21.30;;;5.20;83.30;;;;;;4934603;29;20118;-13
2022/12/27 07:53:34;;;;;;;41.08;24.35;;;5.30;83.00;;;;;;4934751;29;20066;-15
2022/12/27 07:56:25;;;;;;;38.88;23.55;;;5.50;82.50;;;;;;4934752;29;20091;-13
2022/12/27 07:58:51;;;;;;;38.30;20.92;;;5.60;82.50;;;;;;4934707;29;20035;-17
2022/12/27 08:01:19;;;;;;;47.28;25.77;;;5.70;82.50;;;;;;4934713;29;20064;-16
2022/12/27 08:03:45;;;;;;;44.60;25.70;;;5.90;82.40;;;;;;4936444;29;20099;-17
2022/12/27 08:06:25;;;;;;;34.72;22.80;;;5.90;82.50;;;;;;4938172;29;20040;-17
2022/12/27 08:08:53;;;;;;;50.42;28.05;;;6.00;82.20;;;;;;4937964;29;20497;-17
2022/12/27 08:11:19;;;;;;;41.97;24.92;;;6.10;82.10;;;;;;4938276;29;20187;-16
2022/12/27 08:13:45;;;;;;;53.13;31.58;;;6.20;81.80;;;;;;4937768;29;20032;-18
2022/12/27 08:16:16;;;;;;;49.42;28.55;;;6.30;82.00;;;;;;4936794;29;20134;-17
2022/12/27 08:18:42;;;;;;;48.08;30.42;;;6.40;81.60;;;;;;4938233;29;20114;-16
2022/12/27 08:21:08;;;;;;;49.67;30.73;;;6.40;81.70;;;;;;4936563;29;20028;-18
2022/12/27 08:23:34;;;;;;;38.40;22.90;;;6.60;81.70;;;;;;4937798;29;20051;-18
2022/12/27 08:26:00;;;;;;;36.95;22.88;;;6.70;81.80;;;;;;4937938;29;20026;-16
2022/12/27 08:28:30;;;;;;;42.45;23.45;;;6.80;81.30;;;;;;4937895;29;20056;-18
2022/12/27 08:30:57;;;;;;;41.25;23.17;;;6.90;81.60;;;;;;4937532;29;20028;-16
2022/12/27 08:33:24;;;;;;;40.78;23.30;;;7.00;81.50;;;;;;4936489;29;20390;-17
2022/12/27 08:35:50;;;;;;;33.83;21.10;;;7.10;81.50;;;;;;4937651;29;20342;-17
2022/12/27 08:38:16;;;;;;;33.10;20.30;;;7.20;81.40;;;;;;4937787;29;20046;-17
2022/12/27 08:40:43;;;;;;;36.22;21.13;;;7.40;81.20;;;;;;4937486;29;20031;-17
2022/12/27 08:43:10;;;;;;;30.88;18.55;;;7.50;81.00;;;;;;4937401;29;20020;-17
2022/12/27 08:45:38;;;;;;;32.20;18.90;;;7.70;81.00;;;;;;4937735;29;20028;-16
2022/12/27 08:48:05;;;;;;;31.85;18.67;;;7.90;80.90;;;;;;4937422;29;20095;-16
2022/12/27 08:50:31;;;;;;;32.80;18.90;;;8.10;80.80;;;;;;4937971;29;20031;-19
2022/12/27 08:52:59;;;;;;;31.25;18.63;;;8.30;80.60;;;;;;4937308;29;20037;-16
2022/12/27 08:55:28;;;;;;;31.55;19.38;;;8.40;80.50;;;;;;4937676;29;20050;-17
2022/12/27 08:57:57;;;;;;;32.22;19.20;;;8.60;80.30;;;;;;4937487;29;20476;-18
2022/12/27 09:00:25;;;;;;;29.15;17.50;;;8.80;80.30;;;;;;4937500;29;20384;-18
2022/12/27 09:02:51;;;;;;;29.52;17.52;;;9.00;80.10;;;;;;4937274;29;20047;-15
2022/12/27 09:05:18;;;;;;;24.45;15.35;;;9.30;80.00;;;;;;4937479;29;20058;-17
2022/12/27 09:07:45;;;;;;;30.98;18.88;;;9.50;79.90;;;;;;4937425;29;20020;-18
2022/12/27 09:10:11;;;;;;;34.47;21.35;;;9.80;79.40;;;;;;4935640;29;20393;-15
2022/12/27 09:12:37;;;;;;;38.72;26.45;;;10.00;78.90;;;;;;4936994;29;20032;-16
2022/12/27 09:15:03;;;;;;;37.53;23.45;;;10.10;78.10;;;;;;4936569;29;20031;-17
2022/12/27 09:17:29;;;;;;;37.40;23.23;;;10.20;77.20;;;;;;4936757;29;20142;-16
2022/12/27 09:19:55;;;;;;;35.70;22.80;;;10.30;77.80;;;;;;4937251;29;20214;-16
2022/12/27 09:22:20;;;;;;;30.88;18.92;;;10.30;77.90;;;;;;4935323;29;20376;-12
2022/12/27 09:24:47;;;;;;;35.20;20.85;;;10.40;78.00;;;;;;4936648;29;20028;-18
2022/12/27 09:27:13;;;;;;;29.25;18.38;;;10.60;78.10;;;;;;4937015;29;20031;-17
2022/12/27 09:29:38;;;;;;;29.25;17.65;;;10.70;78.10;;;;;;4936752;29;20028;-16
2022/12/27 09:32:04;;;;;;;32.58;20.10;;;10.90;77.70;;;;;;4936687;29;20043;-16
2022/12/27 09:34:31;;;;;;;30.73;19.45;;;11.00;77.60;;;;;;4936875;29;20065;-14
2022/12/27 09:36:57;;;;;;;31.10;18.65;;;11.20;77.60;;;;;;4936403;29;20024;-13
2022/12/27 09:39:23;;;;;;;32.47;20.48;;;11.30;77.30;;;;;;4936329;29;20030;-13
2022/12/27 09:42:02;;;;;;;30.73;18.65;;;11.40;77.50;;;;;;4936372;29;20043;-15
2022/12/27 09:44:47;;;;;;;34.55;20.25;;;11.60;77.10;;;;;;4936600;29;20060;-16
2022/12/27 09:47:42;;;;;;;29.58;18.23;;;11.70;76.80;;;;;;4936321;29;20456;-15
2022/12/27 09:50:17;;;;;;;30.67;19.33;;;11.90;76.80;;;;;;4936370;29;20038;-15
2022/12/27 09:52:59;;;;;;;29.15;19.35;;;12.10;76.40;;;;;;4936308;29;20035;-15
2022/12/27 09:55:45;;;;;;;35.22;20.92;;;12.30;75.70;;;;;;4936381;29;20067;-17
2022/12/27 09:58:32;;;;;;;31.63;20.58;;;12.60;75.60;;;;;;4936184;29;20508;-16
2022/12/27 10:01:00;;;;;;;30.33;18.77;;;12.80;74.30;;;;;;4935832;29;20130;-16
2022/12/27 10:03:28;;;;;;;32.70;19.77;;;12.80;74.30;;;;;;4936379;29;20082;-17
2022/12/27 10:06:19;;;;;;;32.00;20.02;;;12.90;74.40;;;;;;4936226;29;20020;-16
2022/12/27 10:09:12;;;;;;;30.58;19.17;;;13.00;74.10;;;;;;4934658;29;20028;-15
2022/12/27 10:11:47;;;;;;;29.27;18.63;;;13.10;73.90;;;;;;4935983;29;20031;-14
2022/12/27 10:14:15;;;;;;;30.30;17.42;;;13.10;73.90;;;;;;4935896;29;20031;-14
2022/12/27 10:17:33;;;;;;;32.97;19.73;;;13.10;73.80;;;;;;4936158;29;20208;-16
2022/12/27 10:20:24;;;;;;;30.98;19.48;;;13.30;72.10;;;;;;4859273;29;20051;-18
2022/12/27 10:22:57;;;;;;;24.58;16.50;;;13.50;72.30;;;;;;4935388;29;20514;-16
2022/12/27 10:25:24;;;;;;;29.17;19.25;;;13.60;72.40;;;;;;4935780;29;20035;-17
2022/12/27 10:27:57;;;;;;;29.05;19.55;;;13.80;72.30;;;;;;4935753;29;20102;-15
2022/12/27 10:30:23;;;;;;;27.67;18.10;;;14.10;72.00;;;;;;4935715;29;20082;-18
2022/12/27 10:32:49;;;;;;;26.85;16.58;;;14.30;70.80;;;;;;4934092;29;20027;-16
2022/12/27 10:35:18;;;;;;;30.00;19.48;;;14.40;71.00;;;;;;4935748;29;20031;-17
2022/12/27 10:37:45;;;;;;;24.25;15.75;;;14.60;70.60;;;;;;4935366;29;20467;-15
2022/12/27 10:40:27;;;;;;;30.63;18.92;;;14.80;70.20;;;;;;4935389;29;20031;-17
2022/12/27 10:43:02;;;;;;;27.33;17.83;;;14.90;69.90;;;;;;4935250;29;20449;-15
2022/12/27 10:45:37;;;;;;;29.23;18.00;;;15.30;69.10;;;;;;4935845;29;20038;-16
2022/12/27 10:48:15;;;;;;;23.63;15.40;;;15.60;67.80;;;;;;4936099;29;20028;-18
2022/12/27 10:50:58;;;;;;;29.08;17.80;;;15.80;67.30;;;;;;4935347;29;20399;-17
2022/12/27 10:53:35;;;;;;;26.03;16.37;;;15.90;66.80;;;;;;4935272;29;20035;-18
2022/12/27 10:56:29;;;;;;;25.20;16.85;;;16.00;66.90;;;;;;4935570;29;20335;-17
2022/12/27 10:59:16;;;;;;;28.80;18.60;;;16.30;63.60;;;;;;4935022;29;20040;-14
2022/12/27 11:01:45;;;;;;;28.63;18.40;;;16.50;61.70;;;;;;4935634;29;20147;-13
2022/12/27 11:04:23;;;;;;;28.38;18.50;;;16.60;61.80;;;;;;4935258;29;20218;-13
2022/12/27 11:07:10;;;;;;;25.77;17.40;;;16.70;62.00;;;;;;4935369;29;20199;-14
2022/12/27 11:09:36;;;;;;;26.02;16.98;;;16.80;62.10;;;;;;4935153;29;20032;-16
2022/12/27 11:12:27;;;;;;;27.05;17.95;;;16.90;61.90;;;;;;4935391;29;20039;-14
2022/12/27 11:14:56;;;;;;;21.35;15.10;;;17.00;59.90;;;;;;4935320;29;20046;-17
2022/12/27 11:17:47;;;;;;;21.70;14.55;;;17.00;61.30;;;;;;4935032;29;20031;-16
2022/12/27 11:20:36;;;;;;;26.80;16.90;;;17.20;61.50;;;;;;4932189;29;20051;-15
2022/12/27 11:23:09;;;;;;;21.40;14.68;;;17.20;59.60;;;;;;4934759;29;20543;-16
2022/12/27 11:25:49;;;;;;;22.05;14.70;;;17.30;60.30;;;;;;4934916;29;20035;-16
2022/12/27 11:28:49;;;;;;;22.80;14.63;;;17.40;59.70;;;;;;4935397;29;20062;-17
2022/12/27 11:31:31;;;;;;;25.13;16.48;;;17.70;59.50;;;;;;4935319;29;20135;-16
2022/12/27 11:34:01;;;;;;;21.60;12.80;;;17.90;57.50;;;;;;4934979;29;20027;-15
2022/12/27 11:36:37;;;;;;;24.10;16.70;;;18.10;58.00;;;;;;4935550;29;20079;-14
2022/12/27 11:39:03;;;;;;;25.23;15.10;;;18.30;57.70;;;;;;4936825;29;20028;-15
2022/12/27 11:41:29;;;;;;;21.70;15.18;;;18.40;57.90;;;;;;4938644;29;20040;-17
2022/12/27 11:44:01;;;;;;;23.52;16.23;;;18.50;56.50;;;;;;4939127;29;20539;-15
2022/12/27 11:46:40;;;;;;;26.38;17.38;;;18.70;56.40;;;;;;4938563;29;20087;-17
2022/12/27 11:49:11;;;;;;;24.30;16.88;;;18.70;56.10;;;;;;4938418;29;20035;-12
2022/12/27 11:52:02;;;;;;;28.73;17.45;;;18.60;56.10;;;;;;4939075;29;20020;-13
2022/12/27 11:54:49;;;;;;;26.90;17.20;;;18.60;55.00;;;;;;4938452;29;20024;-16
2022/12/27 11:57:40;;;;;;;23.92;15.82;;;18.70;55.20;;;;;;4939048;29;20538;-13
2022/12/27 12:00:30;;;;;;;29.40;18.63;;;18.80;54.50;;;;;;4938319;29;20036;-13
2022/12/27 12:03:26;;;;;;;25.10;17.60;;;18.80;54.60;;;;;;4938948;29;20110;-16
2022/12/27 12:06:07;;;;;;;22.17;12.15;;;18.90;54.70;;;;;;4938183;29;20024;-15
2022/12/27 12:08:57;;;;;;;24.85;16.10;;;19.00;52.20;;;;;;4938445;29;20036;-14
2022/12/27 12:11:54;;;;;;;23.30;14.93;;;19.10;52.10;;;;;;4938395;29;20032;-17
2022/12/27 12:14:44;;;;;;;24.65;16.10;;;19.00;53.10;;;;;;4938017;29;20039;-15
2022/12/27 12:17:32;;;;;;;26.17;17.02;;;19.00;52.00;;;;;;4937944;29;20028;-17
2022/12/27 12:20:22;;;;;;;25.58;16.48;;;19.10;51.60;;;;;;4938206;29;20419;-15
2022/12/27 12:23:10;;;;;;;27.10;17.35;;;19.00;51.10;;;;;;4937780;29;20054;-15
2022/12/27 12:26:11;;;;;;;25.88;16.60;;;19.00;50.80;;;;;;4937871;29;20485;-15
2022/12/27 12:28:49;;;;;;;23.95;16.42;;;19.00;51.20;;;;;;4919555;29;20046;-17
2022/12/27 12:31:17;;;;;;;25.70;16.35;;;19.00;50.00;;;;;;4938073;29;20035;-15
2022/12/27 12:34:12;;;;;;;25.05;16.42;;;19.00;50.00;;;;;;4938234;29;20032;-15
2022/12/27 12:36:43;;;;;;;21.98;14.23;;;19.00;50.50;;;;;;4937853;29;20147;-16
2022/12/27 12:39:30;;;;;;;27.35;18.25;;;18.90;51.80;;;;;;4937687;29;20086;-20
2022/12/27 12:42:17;;;;;;;30.67;19.08;;;18.90;51.20;;;;;;4937631;29;20032;-15
2022/12/27 12:44:57;;;;;;;24.98;15.45;;;18.80;52.00;;;;;;4937688;29;20059;-18
2022/12/27 12:47:41;;;;;;;23.63;14.82;;;18.40;53.40;;;;;;4937597;29;20027;-16
2022/12/27 12:50:49;;;;;;;20.23;13.25;;;18.10;54.50;;;;;;4937340;29;20040;-14
2022/12/27 12:53:53;;;;;;;21.95;15.25;;;18.10;54.10;;;;;;4915341;29;20443;-17
2022/12/27 12:56:48;;;;;;;25.73;17.40;;;18.40;54.50;;;;;;4925601;29;20036;-15
2022/12/27 12:59:20;;;;;;;27.08;16.63;;;18.70;52.50;;;;;;4931705;29;20039;-14
2022/12/27 13:02:12;;;;;;;26.25;16.90;;;18.90;50.20;;;;;;4937551;29;20110;-17
2022/12/27 13:04:41;;;;;;;26.17;16.38;;;19.00;49.70;;;;;;4937342;29;20031;-15
2022/12/27 13:07:31;;;;;;;23.45;16.52;;;19.10;50.20;;;;;;4937275;29;20130;-17
2022/12/27 13:10:09;;;;;;;27.13;17.85;;;19.30;49.90;;;;;;4937232;29;20508;-16
2022/12/27 13:12:49;;;;;;;22.30;14.75;;;19.40;50.20;;;;;;4937080;29;20082;-14
2022/12/27 13:15:23;;;;;;;25.83;16.67;;;19.40;50.80;;;;;;4936993;29;20496;-16
2022/12/27 13:18:03;;;;;;;23.80;15.73;;;19.40;50.70;;;;;;4936905;29;20112;-15
2022/12/27 13:20:34;;;;;;;21.92;14.32;;;19.40;50.60;;;;;;4937664;29;20472;-16
2022/12/27 13:23:37;;;;;;;25.92;16.15;;;19.40;51.30;;;;;;4936659;29;20055;-15
2022/12/27 13:26:19;;;;;;;20.73;14.75;;;19.40;50.20;;;;;;4937017;29;20019;-15
2022/12/27 13:29:10;;;;;;;24.95;16.52;;;19.10;52.10;;;;;;4936600;29;20384;-18
2022/12/27 13:32:13;;;;;;;25.30;18.08;;;18.90;52.40;;;;;;4937155;29;20032;-14
2022/12/27 13:34:48;;;;;;;20.15;13.43;;;18.80;52.70;;;;;;4937032;29;20425;-15
2022/12/27 13:37:21;;;;;;;27.15;17.33;;;18.60;53.20;;;;;;4936631;29;20036;-16
2022/12/27 13:40:14;;;;;;;27.30;17.47;;;18.50;53.70;;;;;;4937071;29;20040;-15
2022/12/27 13:43:11;;;;;;;20.57;13.53;;;18.40;53.90;;;;;;4936634;29;20106;-17
2022/12/27 13:45:55;;;;;;;23.08;15.10;;;18.30;53.60;;;;;;4936747;29;20260;-15
2022/12/27 13:48:33;;;;;;;26.13;16.88;;;18.30;54.50;;;;;;4936706;29;20046;-14
2022/12/27 13:51:44;;;;;;;23.17;15.50;;;18.20;54.40;;;;;;4936023;29;20032;-18
2022/12/27 13:54:31;;;;;;;19.92;13.18;;;18.20;54.10;;;;;;4936696;29;20027;-15
2022/12/27 13:57:25;;;;;;;28.02;17.95;;;18.10;55.20;;;;;;4936031;29;20131;-16
2022/12/27 14:00:17;;;;;;;27.35;17.13;;;18.20;54.30;;;;;;4936431;29;20122;-16
2022/12/27 14:02:43;;;;;;;22.75;14.85;;;18.20;55.20;;;;;;4935924;29;20139;-16
2022/12/27 14:05:50;;;;;;;26.38;16.92;;;18.30;55.00;;;;;;4936069;29;20016;-16
2022/12/27 14:08:56;;;;;;;23.80;15.45;;;18.40;54.40;;;;;;4877530;29;20144;-17
2022/12/27 14:11:51;;;;;;;23.77;15.43;;;18.40;54.40;;;;;;4872942;29;20029;-15
2022/12/27 14:14:20;;;;;;;22.38;15.30;;;18.40;53.90;;;;;;4877645;29;20033;-18
2022/12/27 14:17:09;;;;;;;25.08;15.88;;;18.40;53.70;;;;;;4877328;29;20059;-17
2022/12/27 14:19:53;;;;;;;29.05;18.98;;;18.40;54.00;;;;;;4877274;29;20037;-13
2022/12/27 14:22:31;;;;;;;28.48;18.42;;;18.20;54.50;;;;;;4877333;29;20088;-15
2022/12/27 14:25:50;;;;;;;28.15;17.73;;;17.90;54.80;;;;;;4877063;29;20037;-15
2022/12/27 14:28:34;;;;;;;24.85;15.65;;;17.80;54.70;;;;;;4877081;29;20056;-15
2022/12/27 14:31:17;;;;;;;27.30;17.42;;;17.70;55.40;;;;;;4876996;29;20439;-15
2022/12/27 14:33:54;;;;;;;21.52;14.23;;;17.70;55.50;;;;;;4877046;29;20583;-15
2022/12/27 14:36:56;;;;;;;26.13;16.27;;;17.60;55.90;;;;;;4877019;29;20040;-15
2022/12/27 14:40:02;;;;;;;19.85;13.95;;;17.60;55.40;;;;;;4876800;29;20052;-15
2022/12/27 14:42:39;;;;;;;24.38;15.27;;;17.60;55.50;;;;;;4876711;29;20119;-14
2022/12/27 14:45:24;;;;;;;23.75;16.00;;;17.60;56.00;;;;;;4935234;29;20071;-15
2022/12/27 14:48:28;;;;;;;27.38;16.35;;;17.50;55.40;;;;;;4935379;29;20027;-13